Time;durP1;ratioP1;P1;durP2;ratioP2;P2;SDS_P1;SDS_P2;PMS_P1;PMS_P2;Temp;Humidity;BMP_temperature;BMP_pressure;BME280_temperature;BME280_humidity;BME280_pressure;Samples;Min_cycle;Max_cycle;Signal;HPM_P1;HPM_P2
2022/07/30 00:04:32;;;;;;;11.77;10.57;;;29.30;53.50;;;;;;4755018;57;21311;-30
2022/07/30 00:09:33;;;;;;;12.32;11.15;;;29.30;53.30;;;;;;4937984;57;21021;-30
2022/07/30 00:14:34;;;;;;;12.15;11.05;;;29.30;53.40;;;;;;4767185;57;21089;-29
2022/07/30 00:19:35;;;;;;;11.52;10.45;;;29.30;53.40;;;;;;4648284;57;21025;-30
2022/07/30 00:24:36;;;;;;;11.98;10.98;;;29.30;53.40;;;;;;4745614;57;21507;-29
2022/07/30 00:29:36;;;;;;;12.52;11.18;;;29.30;53.30;;;;;;5009263;57;21090;-30
2022/07/30 00:34:37;;;;;;;11.65;10.45;;;29.30;53.40;;;;;;4767908;57;21132;-29
2022/07/30 00:39:38;;;;;;;11.60;10.50;;;29.30;53.30;;;;;;4745801;57;21127;-31
2022/07/30 00:44:40;;;;;;;11.55;10.52;;;29.30;53.30;;;;;;4580091;57;21042;-32
2022/07/30 00:49:41;;;;;;;11.40;10.40;;;29.30;53.30;;;;;;4591157;57;21647;-30
2022/07/30 00:54:41;;;;;;;11.90;10.80;;;29.30;53.40;;;;;;4629244;57;21093;-30
2022/07/30 00:59:42;;;;;;;11.20;10.20;;;29.30;53.40;;;;;;4635917;57;21037;-30
2022/07/30 01:04:43;;;;;;;11.00;10.00;;;29.30;53.40;;;;;;4561928;61;21037;-31
2022/07/30 01:09:44;;;;;;;10.82;9.82;;;29.30;53.40;;;;;;4976248;57;21552;-29
2022/07/30 01:14:45;;;;;;;11.55;10.45;;;29.30;53.50;;;;;;4810596;57;21122;-30
2022/07/30 01:19:51;;;;;;;10.70;9.80;;;29.30;53.40;;;;;;5009088;57;21097;-30
2022/07/30 01:25:22;;;;;;;10.73;9.68;;;29.30;53.30;;;;;;4561857;61;21516;-30
2022/07/30 01:30:25;;;;;;;10.73;9.82;;;29.30;53.40;;;;;;4922929;57;21057;-32
2022/07/30 01:35:29;;;;;;;11.35;10.35;;;29.30;53.40;;;;;;4704721;57;21021;-32
2022/07/30 01:40:32;;;;;;;10.82;9.88;;;29.30;53.30;;;;;;4566981;57;21026;-30
2022/07/30 01:45:34;;;;;;;11.52;10.38;;;29.30;53.30;;;;;;4561975;61;21037;-32
2022/07/30 01:50:36;;;;;;;10.35;9.45;;;29.30;53.30;;;;;;4811489;57;21034;-33
2022/07/30 01:55:39;;;;;;;10.52;9.48;;;29.20;53.20;;;;;;4773938;57;21074;-33
2022/07/30 02:00:43;;;;;;;10.10;9.20;;;29.30;53.30;;;;;;4624073;57;21030;-32
2022/07/30 02:05:55;;;;;;;10.55;9.65;;;29.20;53.30;;;;;;5009344;57;21066;-34
2022/07/30 02:11:10;;;;;;;10.57;9.57;;;29.30;53.20;;;;;;4562738;61;21038;-32
2022/07/30 02:16:23;;;;;;;10.48;9.57;;;29.20;53.10;;;;;;4675743;57;21070;-32
2022/07/30 02:21:25;;;;;;;10.63;9.73;;;29.20;53.10;;;;;;4859259;57;21142;-32
2022/07/30 02:26:27;;;;;;;10.57;9.57;;;29.20;53.10;;;;;;4680975;57;21010;-34
2022/07/30 02:31:31;;;;;;;9.82;8.93;;;29.20;53.00;;;;;;4582558;57;21033;-36
2022/07/30 02:36:34;;;;;;;10.73;9.75;;;29.20;53.00;;;;;;4591779;57;21081;-33
2022/07/30 02:41:38;;;;;;;10.32;9.32;;;29.20;53.00;;;;;;4562546;61;21121;-36
2022/07/30 02:46:40;;;;;;;13.68;9.05;;;29.20;53.00;;;;;;4562744;61;21512;-32
2022/07/30 02:51:42;;;;;;;9.98;9.05;;;29.20;52.90;;;;;;4815915;57;21599;-30
2022/07/30 02:56:45;;;;;;;10.23;9.32;;;29.20;52.90;;;;;;4660611;57;21078;-31
2022/07/30 03:01:47;;;;;;;9.68;8.80;;;29.20;52.90;;;;;;5009515;57;21109;-33
2022/07/30 03:06:50;;;;;;;9.88;9.07;;;29.20;52.90;;;;;;5009500;57;21082;-30
2022/07/30 03:11:52;;;;;;;10.25;9.35;;;29.20;52.80;;;;;;4725425;57;21102;-31
2022/07/30 03:16:57;;;;;;;10.05;9.15;;;29.20;52.90;;;;;;4801451;57;21054;-32
2022/07/30 03:22:01;;;;;;;10.15;9.25;;;29.20;52.80;;;;;;4793215;57;21166;-33
2022/07/30 03:27:03;;;;;;;9.95;9.05;;;29.20;52.80;;;;;;4562678;61;21595;-32
2022/07/30 03:32:05;;;;;;;10.32;9.25;;;29.20;52.70;;;;;;4619530;57;21078;-33
2022/07/30 03:37:06;;;;;;;9.77;8.77;;;29.20;52.70;;;;;;4615448;57;21022;-33
2022/07/30 03:42:08;;;;;;;9.90;9.10;;;29.20;52.70;;;;;;4733551;57;21105;-33
2022/07/30 03:47:09;;;;;;;9.65;8.82;;;29.20;52.70;;;;;;4690144;57;21085;-31
2022/07/30 03:52:10;;;;;;;9.48;8.63;;;29.20;52.70;;;;;;4606795;57;21079;-31
2022/07/30 03:57:11;;;;;;;9.57;8.73;;;29.20;52.70;;;;;;4806097;57;21034;-32
2022/07/30 04:02:12;;;;;;;9.68;8.88;;;29.20;52.70;;;;;;4562418;61;21042;-34
2022/07/30 04:07:13;;;;;;;9.60;8.80;;;29.20;52.60;;;;;;4760474;57;21072;-34
2022/07/30 04:12:14;;;;;;;10.18;9.27;;;29.20;52.70;;;;;;4782133;57;21094;-31
2022/07/30 04:17:24;;;;;;;10.02;9.13;;;29.20;52.80;;;;;;4682495;57;21098;-31
2022/07/30 04:22:35;;;;;;;9.73;8.93;;;29.20;52.70;;;;;;4819833;57;21110;-31
2022/07/30 04:27:38;;;;;;;10.45;9.45;;;29.20;52.70;;;;;;4638241;57;21070;-31
2022/07/30 04:32:41;;;;;;;11.68;9.50;;;29.10;52.60;;;;;;4909196;57;21508;-32
2022/07/30 04:37:42;;;;;;;9.88;8.98;;;29.10;52.50;;;;;;4637198;57;21639;-30
2022/07/30 04:42:42;;;;;;;9.82;9.02;;;29.20;52.50;;;;;;4792232;57;21053;-29
2022/07/30 04:47:43;;;;;;;10.50;9.45;;;29.10;53.10;;;;;;4604459;57;21545;-33
2022/07/30 04:52:44;;;;;;;9.57;8.77;;;29.10;52.40;;;;;;4721833;57;21590;-32
2022/07/30 04:57:48;;;;;;;9.60;8.80;;;29.10;52.50;;;;;;4640446;57;21081;-33
2022/07/30 05:02:50;;;;;;;9.98;9.02;;;29.10;52.50;;;;;;4693224;57;21101;-31
2022/07/30 05:07:52;;;;;;;9.13;8.32;;;29.10;52.50;;;;;;4728563;57;21030;-31
2022/07/30 05:12:52;;;;;;;10.10;9.02;;;29.10;52.50;;;;;;4620590;57;21041;-30
2022/07/30 05:17:53;;;;;;;9.95;9.05;;;29.10;52.50;;;;;;4674894;57;21054;-29
2022/07/30 05:22:54;;;;;;;10.02;9.02;;;29.10;52.50;;;;;;4633064;57;21046;-34
2022/07/30 05:27:56;;;;;;;10.65;9.55;;;29.10;52.50;;;;;;4921137;57;21081;-31
2022/07/30 05:32:57;;;;;;;9.60;8.70;;;29.10;52.40;;;;;;4613769;57;21556;-33
2022/07/30 05:37:59;;;;;;;10.23;9.32;;;29.10;52.60;;;;;;4657115;57;21063;-33
2022/07/30 05:43:00;;;;;;;9.55;8.70;;;29.10;52.50;;;;;;4665084;57;21042;-34
2022/07/30 05:48:01;;;;;;;9.75;8.85;;;29.10;52.40;;;;;;4562619;58;21025;-34
2022/07/30 05:53:01;;;;;;;10.40;9.40;;;29.10;52.50;;;;;;4663601;57;21550;-32
2022/07/30 05:58:02;;;;;;;10.18;9.18;;;29.10;52.50;;;;;;4572447;57;21002;-31
2022/07/30 06:03:03;;;;;;;10.00;9.13;;;29.10;52.50;;;;;;4562108;61;21046;-30
2022/07/30 06:08:04;;;;;;;10.00;9.10;;;29.10;52.50;;;;;;4677733;57;21134;-34
2022/07/30 06:13:05;;;;;;;9.90;9.00;;;29.10;52.40;;;;;;4855932;57;21157;-34
2022/07/30 06:18:06;;;;;;;11.12;9.35;;;29.10;52.60;;;;;;4980606;57;21046;-32
2022/07/30 06:23:06;;;;;;;9.75;8.75;;;29.10;52.40;;;;;;4607403;57;21114;-31
2022/07/30 06:28:07;;;;;;;10.50;9.60;;;29.10;52.50;;;;;;4564414;57;21086;-31
2022/07/30 06:33:08;;;;;;;9.90;9.10;;;29.10;52.50;;;;;;4645144;57;21069;-28
2022/07/30 06:38:09;;;;;;;10.13;9.23;;;29.10;52.40;;;;;;4931338;57;21026;-31
2022/07/30 06:43:10;;;;;;;10.90;8.77;;;29.10;52.50;;;;;;4717930;57;21038;-33
2022/07/30 06:48:11;;;;;;;9.90;9.00;;;29.10;52.40;;;;;;4771551;57;21595;-32
2022/07/30 06:53:12;;;;;;;10.48;9.57;;;29.10;52.50;;;;;;4770317;57;21639;-31
2022/07/30 06:58:12;;;;;;;9.73;8.82;;;29.10;52.40;;;;;;4562084;61;21142;-31
2022/07/30 07:03:13;;;;;;;9.93;8.93;;;29.10;52.50;;;;;;4870259;57;21035;-33
2022/07/30 07:08:14;;;;;;;9.88;8.98;;;29.10;52.60;;;;;;4806503;57;21086;-32
2022/07/30 07:13:15;;;;;;;10.15;9.30;;;29.10;52.50;;;;;;4810383;57;21548;-32
2022/07/30 07:18:16;;;;;;;9.98;8.98;;;29.10;52.50;;;;;;4619849;57;21109;-32
2022/07/30 07:23:18;;;;;;;10.05;9.13;;;29.10;52.50;;;;;;4562122;61;21117;-33
2022/07/30 07:28:19;;;;;;;10.45;9.55;;;29.10;52.50;;;;;;4562277;61;21081;-33
2022/07/30 07:33:20;;;;;;;10.43;9.43;;;29.10;52.50;;;;;;4562124;61;21038;-32
2022/07/30 07:38:21;;;;;;;10.15;9.25;;;29.10;52.40;;;;;;5008888;57;21492;-34
2022/07/30 07:43:24;;;;;;;10.32;9.43;;;29.10;52.40;;;;;;4970662;57;21042;-31
2022/07/30 07:48:24;;;;;;;10.35;9.45;;;29.10;52.40;;;;;;4562431;57;21472;-31
2022/07/30 07:53:25;;;;;;;10.95;9.95;;;29.10;52.40;;;;;;4598783;57;21030;-32
2022/07/30 07:58:26;;;;;;;10.23;9.23;;;29.10;52.30;;;;;;4561965;61;21026;-32
2022/07/30 08:03:27;;;;;;;10.30;9.25;;;29.10;52.30;;;;;;5009024;57;21512;-32
2022/07/30 08:08:28;;;;;;;10.63;9.73;;;29.10;52.40;;;;;;4562304;58;21065;-31
2022/07/30 08:13:29;;;;;;;11.27;10.27;;;29.10;52.30;;;;;;4561932;61;21006;-30
2022/07/30 08:18:30;;;;;;;10.75;9.75;;;29.10;52.30;;;;;;4981305;57;21568;-33
2022/07/30 08:23:31;;;;;;;11.05;10.05;;;29.10;52.40;;;;;;4681751;57;21049;-33
2022/07/30 08:28:34;;;;;;;10.50;9.60;;;29.10;52.30;;;;;;4905948;57;21142;-31
2022/07/30 08:33:34;;;;;;;11.23;10.15;;;29.20;52.50;;;;;;4619734;57;21038;-33
2022/07/30 08:38:36;;;;;;;10.77;9.68;;;29.20;52.40;;;;;;4690248;57;21078;-32
2022/07/30 08:43:38;;;;;;;10.73;9.73;;;29.20;52.50;;;;;;4724419;57;21112;-35
2022/07/30 08:48:41;;;;;;;10.98;10.05;;;29.20;52.50;;;;;;4595917;57;21030;-34
2022/07/30 08:53:42;;;;;;;10.52;9.52;;;29.20;52.50;;;;;;4621185;57;21022;-34
2022/07/30 08:58:44;;;;;;;10.65;9.75;;;29.20;52.50;;;;;;4720631;57;21082;-30
2022/07/30 09:03:45;;;;;;;10.05;9.18;;;29.20;52.60;;;;;;4713492;57;21544;-32
2022/07/30 09:08:46;;;;;;;10.45;9.45;;;29.10;52.50;;;;;;4584765;57;21085;-31
2022/07/30 09:13:49;;;;;;;10.45;9.55;;;29.10;52.50;;;;;;4561733;61;21517;-30
2022/07/30 09:18:51;;;;;;;10.30;9.40;;;29.20;52.60;;;;;;4663443;57;21539;-33
2022/07/30 09:24:00;;;;;;;10.35;9.45;;;29.20;52.60;;;;;;4561770;61;21070;-33
2022/07/30 09:29:15;;;;;;;10.05;9.15;;;29.20;52.60;;;;;;4562488;58;21496;-34
2022/07/30 09:34:24;;;;;;;10.88;9.88;;;29.20;52.60;;;;;;4719270;57;21483;-31
2022/07/30 09:39:36;;;;;;;10.40;9.45;;;29.20;52.70;;;;;;4691724;57;21508;-32
2022/07/30 09:44:37;;;;;;;10.40;9.50;;;29.20;52.70;;;;;;4627565;57;21551;-34
2022/07/30 09:49:40;;;;;;;11.02;10.00;;;29.20;52.70;;;;;;4821235;57;21098;-33
2022/07/30 09:54:49;;;;;;;10.93;10.02;;;29.20;52.60;;;;;;4864390;57;21567;-34
2022/07/30 09:59:50;;;;;;;11.00;10.10;;;29.20;52.70;;;;;;4606021;57;21078;-32
2022/07/30 10:04:51;;;;;;;10.75;9.75;;;29.20;52.70;;;;;;4636761;57;21520;-31
2022/07/30 10:09:52;;;;;;;9.80;8.90;;;29.20;52.70;;;;;;4562534;57;21022;-32
2022/07/30 10:14:55;;;;;;;10.60;9.70;;;29.20;52.70;;;;;;4638954;57;21528;-31
2022/07/30 10:19:57;;;;;;;10.43;9.52;;;29.20;52.80;;;;;;4697607;57;21014;-34
2022/07/30 10:24:57;;;;;;;10.77;9.88;;;29.20;52.80;;;;;;4561834;61;21049;-34
2022/07/30 10:29:59;;;;;;;11.32;10.32;;;29.20;52.80;;;;;;4585751;57;21018;-31
2022/07/30 10:35:00;;;;;;;10.30;9.40;;;29.20;52.90;;;;;;4821504;57;21018;-32
2022/07/30 10:40:29;;;;;;;10.55;9.65;;;29.20;52.90;;;;;;4891220;57;21022;-33
2022/07/30 10:47:12;;;;;;;9.70;8.90;;;29.20;52.90;;;;;;4858573;57;21196;-32
2022/07/30 10:52:13;;;;;;;11.10;10.00;;;29.20;52.90;;;;;;4604266;57;21488;-38
2022/07/30 10:57:19;;;;;;;10.18;9.27;;;29.20;53.00;;;;;;4615016;57;21119;-32
2022/07/30 11:02:21;;;;;;;11.23;10.20;;;29.20;53.00;;;;;;4691733;57;21568;-31
2022/07/30 11:07:27;;;;;;;10.98;10.07;;;29.20;53.10;;;;;;4647396;57;21006;-32
2022/07/30 11:14:20;;;;;;;10.63;9.73;;;29.20;53.10;;;;;;4716137;57;21492;-32
2022/07/30 11:19:23;;;;;;;10.52;9.52;;;29.20;53.10;;;;;;4629902;57;21105;-32
2022/07/30 11:24:45;;;;;;;10.90;9.90;;;29.20;53.10;;;;;;4736565;57;21499;-32
2022/07/30 11:29:47;;;;;;;10.95;10.00;;;29.20;53.10;;;;;;4600760;57;21082;-31
2022/07/30 11:34:49;;;;;;;10.70;9.70;;;29.20;53.10;;;;;;5009066;57;21556;-30
2022/07/30 11:40:10;;;;;;;10.30;9.40;;;29.20;53.10;;;;;;4562119;61;21138;-32
2022/07/30 11:45:25;;;;;;;10.40;9.50;;;29.20;53.20;;;;;;4630610;57;21026;-31
2022/07/30 11:50:29;;;;;;;11.00;10.10;;;29.20;53.30;;;;;;4719403;57;21552;-31
2022/07/30 11:55:42;;;;;;;10.52;9.63;;;29.20;53.20;;;;;;4562197;61;21082;-29
2022/07/30 12:00:46;;;;;;;10.90;9.95;;;29.30;53.30;;;;;;4658525;57;21499;-34
2022/07/30 12:05:48;;;;;;;10.32;9.45;;;29.30;53.40;;;;;;4672041;57;21465;-28
2022/07/30 12:11:00;;;;;;;10.57;9.57;;;29.20;53.30;;;;;;4968643;57;21074;-31
2022/07/30 12:16:05;;;;;;;10.57;9.50;;;29.20;53.40;;;;;;4635757;57;21054;-32
2022/07/30 12:21:14;;;;;;;10.75;9.85;;;29.30;53.40;;;;;;4618649;57;21071;-30
2022/07/30 12:26:29;;;;;;;10.68;9.77;;;29.20;53.30;;;;;;4969230;57;21046;-34
2022/07/30 12:31:32;;;;;;;10.37;9.47;;;29.20;53.50;;;;;;4818186;57;21066;-34
2022/07/30 12:36:34;;;;;;;10.98;9.98;;;29.20;53.40;;;;;;4636743;57;21112;-30
2022/07/30 12:41:49;;;;;;;10.88;9.80;;;29.20;53.40;;;;;;4660327;57;21078;-30
2022/07/30 12:46:50;;;;;;;10.43;9.52;;;29.20;53.40;;;;;;4667838;57;21136;-33
2022/07/30 12:51:52;;;;;;;10.90;9.90;;;29.30;53.50;;;;;;4622877;57;21465;-33
2022/07/30 12:57:04;;;;;;;10.52;9.63;;;29.20;53.40;;;;;;4592032;57;21097;-30
2022/07/30 13:02:05;;;;;;;11.05;10.15;;;29.30;53.60;;;;;;4562412;61;21086;-32
2022/07/30 13:07:11;;;;;;;10.75;9.85;;;29.30;53.50;;;;;;4562827;58;21480;-32
2022/07/30 13:12:13;;;;;;;10.80;9.88;;;29.30;53.60;;;;;;4577407;57;21025;-31
2022/07/30 13:17:13;;;;;;;10.63;9.73;;;29.30;53.50;;;;;;4562004;61;21628;-30
2022/07/30 13:22:14;;;;;;;10.60;9.70;;;29.30;53.70;;;;;;4562172;61;21038;-34
2022/07/30 13:27:18;;;;;;;10.63;9.73;;;29.30;53.60;;;;;;4840018;57;21042;-30
2022/07/30 13:32:19;;;;;;;10.48;9.65;;;29.30;53.60;;;;;;4654873;57;21635;-31
2022/07/30 13:37:20;;;;;;;10.32;9.43;;;29.30;53.60;;;;;;4585331;57;21492;-31
2022/07/30 13:42:21;;;;;;;10.60;9.70;;;29.30;53.60;;;;;;4587926;57;21141;-33
2022/07/30 13:47:22;;;;;;;11.02;10.02;;;29.20;53.60;;;;;;4644518;57;21093;-30
2022/07/30 13:52:23;;;;;;;10.63;9.73;;;29.30;53.70;;;;;;4798506;57;21536;-30
2022/07/30 13:57:24;;;;;;;10.70;9.80;;;29.20;53.60;;;;;;4687098;57;21099;-32
2022/07/30 14:02:24;;;;;;;11.20;10.20;;;29.30;53.60;;;;;;4562045;59;21038;-34
2022/07/30 14:07:25;;;;;;;11.60;10.50;;;29.30;53.60;;;;;;4603095;57;21523;-30
2022/07/30 14:12:26;;;;;;;10.73;9.82;;;29.20;53.60;;;;;;4834393;57;21537;-33
2022/07/30 14:17:27;;;;;;;11.07;10.15;;;29.30;53.70;;;;;;4561864;57;21122;-31
2022/07/30 14:22:28;;;;;;;11.27;10.27;;;29.30;53.70;;;;;;4562380;61;21038;-31
2022/07/30 14:27:30;;;;;;;10.70;9.80;;;29.30;53.70;;;;;;4867325;57;21098;-30
2022/07/30 14:32:31;;;;;;;10.88;9.98;;;29.30;53.70;;;;;;4562658;61;21624;-29
2022/07/30 14:37:33;;;;;;;10.95;9.95;;;29.30;53.70;;;;;;4616930;57;21574;-31
2022/07/30 14:42:35;;;;;;;10.75;9.75;;;29.20;53.60;;;;;;4752319;57;21488;-33
2022/07/30 14:47:36;;;;;;;11.35;10.30;;;29.30;53.80;;;;;;4600589;57;21487;-34
2022/07/30 14:52:37;;;;;;;10.45;9.57;;;29.30;53.70;;;;;;4628128;57;21093;-33
2022/07/30 14:57:38;;;;;;;10.82;9.82;;;29.30;53.70;;;;;;4670834;57;21127;-30
2022/07/30 15:02:39;;;;;;;10.65;9.75;;;29.30;53.70;;;;;;4908068;57;21087;-30
2022/07/30 15:07:40;;;;;;;10.90;10.00;;;29.30;53.70;;;;;;5008940;57;21560;-30
2022/07/30 15:12:41;;;;;;;10.68;9.77;;;29.30;53.80;;;;;;4562121;61;21086;-30
2022/07/30 15:17:42;;;;;;;10.70;9.80;;;29.30;53.70;;;;;;4591811;57;21118;-31
2022/07/30 15:22:42;;;;;;;10.77;9.88;;;29.30;53.80;;;;;;4903059;57;21099;-31
2022/07/30 15:27:43;;;;;;;11.07;10.07;;;29.30;53.80;;;;;;4749411;57;21231;-34
2022/07/30 15:32:44;;;;;;;11.25;10.15;;;29.30;53.80;;;;;;4617814;57;21014;-33
2022/07/30 15:37:46;;;;;;;10.48;9.57;;;29.30;53.80;;;;;;4743832;57;21018;-32
2022/07/30 15:42:46;;;;;;;10.45;9.52;;;29.30;53.80;;;;;;4577622;57;21544;-33
2022/07/30 15:47:47;;;;;;;11.15;10.18;;;29.30;53.80;;;;;;4612771;57;21093;-34
2022/07/30 15:52:48;;;;;;;11.18;10.18;;;29.30;53.80;;;;;;4562349;61;21097;-31
2022/07/30 15:57:49;;;;;;;11.35;10.30;;;29.30;53.80;;;;;;4562428;61;21579;-31
2022/07/30 16:02:50;;;;;;;10.90;10.00;;;29.30;53.80;;;;;;4850510;57;21034;-34
2022/07/30 16:07:52;;;;;;;10.38;9.48;;;29.30;53.80;;;;;;5008912;57;21014;-30
2022/07/30 16:12:53;;;;;;;10.70;9.77;;;29.30;53.80;;;;;;4561947;61;21069;-28
2022/07/30 16:17:53;;;;;;;10.60;9.70;;;29.30;53.80;;;;;;4871322;57;21176;-31
2022/07/30 16:22:54;;;;;;;10.43;9.52;;;29.30;53.80;;;;;;4561634;61;21164;-31
2022/07/30 16:27:56;;;;;;;10.90;9.88;;;29.30;54.50;;;;;;4755473;57;21098;-31
2022/07/30 16:32:57;;;;;;;10.82;9.85;;;29.30;54.40;;;;;;4688537;57;21521;-32
2022/07/30 16:38:01;;;;;;;10.80;9.90;;;29.30;54.00;;;;;;4789695;57;21094;-33
2022/07/30 16:43:02;;;;;;;10.40;9.48;;;29.30;54.00;;;;;;4896166;57;21542;-31
2022/07/30 16:48:04;;;;;;;10.40;9.50;;;29.30;54.00;;;;;;4697851;57;21600;-30
2022/07/30 16:53:06;;;;;;;11.35;10.30;;;29.30;54.00;;;;;;4839974;57;21022;-29
2022/07/30 16:58:07;;;;;;;11.12;10.13;;;29.30;54.10;;;;;;5009381;57;21105;-32
2022/07/30 17:03:08;;;;;;;10.35;9.50;;;29.30;54.20;;;;;;4562163;61;21535;-33
2022/07/30 17:08:09;;;;;;;10.15;9.25;;;29.30;54.30;;;;;;4562498;61;21105;-32
2022/07/30 17:13:10;;;;;;;9.90;9.00;;;29.30;54.40;;;;;;4886463;57;21022;-28
2022/07/30 17:18:11;;;;;;;10.40;9.48;;;29.30;54.30;;;;;;4597729;57;21058;-32
2022/07/30 17:23:12;;;;;;;10.48;9.57;;;29.30;54.40;;;;;;4562343;61;21020;-31
2022/07/30 17:28:13;;;;;;;10.32;9.43;;;29.30;54.40;;;;;;4739019;57;21042;-31
2022/07/30 17:33:14;;;;;;;10.55;9.60;;;29.30;54.40;;;;;;4562164;61;21090;-32
2022/07/30 17:38:15;;;;;;;10.82;9.88;;;29.30;54.50;;;;;;4587276;57;21026;-31
2022/07/30 17:43:15;;;;;;;10.73;9.82;;;29.30;54.50;;;;;;4779169;57;21046;-33
2022/07/30 17:48:17;;;;;;;10.05;9.18;;;29.30;54.50;;;;;;4586876;57;21576;-33
2022/07/30 17:53:18;;;;;;;10.90;9.90;;;29.30;54.50;;;;;;4744015;57;21457;-33
2022/07/30 17:58:21;;;;;;;10.10;9.25;;;29.30;54.50;;;;;;4684629;57;21070;-33
2022/07/30 18:03:22;;;;;;;10.23;9.32;;;29.30;54.60;;;;;;4717491;57;21516;-30
2022/07/30 18:08:23;;;;;;;10.73;9.82;;;29.30;54.60;;;;;;4606704;57;21030;-31
2022/07/30 18:13:24;;;;;;;10.77;9.80;;;29.30;54.60;;;;;;4648299;57;21030;-29
2022/07/30 18:18:25;;;;;;;10.90;9.90;;;29.30;54.70;;;;;;4603662;57;21062;-30
2022/07/30 18:23:26;;;;;;;11.32;10.23;;;29.30;54.70;;;;;;4682423;57;21049;-30
2022/07/30 18:28:27;;;;;;;10.52;9.60;;;29.30;55.20;;;;;;4748112;57;21022;-30
2022/07/30 18:33:28;;;;;;;10.35;9.45;;;29.30;54.70;;;;;;4669545;57;21097;-32
2022/07/30 18:38:28;;;;;;;11.32;10.23;;;29.30;54.70;;;;;;4837409;57;21138;-29
2022/07/30 18:43:30;;;;;;;11.00;10.00;;;29.30;54.80;;;;;;4561947;61;21572;-30
2022/07/30 18:48:31;;;;;;;11.05;10.05;;;29.30;54.70;;;;;;4588478;57;21075;-33
2022/07/30 18:53:33;;;;;;;10.88;9.98;;;29.30;54.70;;;;;;4562337;61;21097;-33
2022/07/30 18:58:33;;;;;;;11.45;10.35;;;29.30;54.80;;;;;;4657336;57;21484;-31
2022/07/30 19:03:34;;;;;;;10.48;9.57;;;29.30;54.80;;;;;;4676606;57;21046;-31
2022/07/30 19:08:35;;;;;;;10.68;9.77;;;29.30;54.80;;;;;;4779757;57;21018;-30
2022/07/30 19:13:38;;;;;;;11.95;10.52;;;29.30;54.80;;;;;;4600221;57;21586;-30
2022/07/30 19:18:39;;;;;;;11.43;10.25;;;29.30;54.90;;;;;;4730379;57;21560;-29
2022/07/30 19:23:40;;;;;;;10.95;9.95;;;29.30;55.00;;;;;;4745080;57;21105;-34
2022/07/30 19:28:40;;;;;;;11.32;10.32;;;29.20;54.80;;;;;;4594763;57;21025;-31
2022/07/30 19:33:42;;;;;;;11.23;9.95;;;29.30;54.90;;;;;;4584555;57;21499;-29
2022/07/30 19:38:44;;;;;;;11.90;10.75;;;29.30;54.90;;;;;;4620083;57;21090;-30
2022/07/30 19:43:44;;;;;;;11.88;10.75;;;29.30;54.90;;;;;;4613540;57;21660;-30
2022/07/30 19:48:46;;;;;;;11.57;10.48;;;29.20;54.90;;;;;;4987837;57;21086;-31
2022/07/30 19:53:47;;;;;;;12.20;11.00;;;29.30;55.00;;;;;;4669572;57;21055;-30
2022/07/30 19:58:48;;;;;;;11.02;10.05;;;29.30;55.00;;;;;;4869006;57;21022;-32
2022/07/30 20:03:49;;;;;;;10.90;9.82;;;29.20;54.90;;;;;;4640065;57;21090;-32
2022/07/30 20:08:50;;;;;;;11.52;10.43;;;29.20;55.00;;;;;;4580416;57;21106;-31
2022/07/30 20:13:51;;;;;;;11.15;10.15;;;29.20;55.00;;;;;;4801147;57;21540;-31
2022/07/30 20:18:53;;;;;;;10.30;9.40;;;29.20;55.00;;;;;;4724846;57;21135;-31
2022/07/30 20:23:53;;;;;;;11.00;9.90;;;29.20;55.00;;;;;;4561778;61;21540;-31
2022/07/30 20:28:54;;;;;;;11.27;10.18;;;29.20;55.10;;;;;;4562277;61;21069;-30
2022/07/30 20:33:55;;;;;;;10.68;9.60;;;29.20;55.10;;;;;;4562255;61;21141;-31
2022/07/30 20:38:56;;;;;;;11.15;10.05;;;29.20;55.10;;;;;;4793670;57;21555;-32
2022/07/30 20:43:59;;;;;;;10.50;9.60;;;29.20;55.10;;;;;;4619769;57;21090;-31
2022/07/30 20:49:00;;;;;;;10.43;9.43;;;29.20;55.10;;;;;;4594016;57;21509;-32
2022/07/30 20:54:01;;;;;;;9.52;8.65;;;29.20;55.20;;;;;;4956090;57;21035;-32
2022/07/30 20:59:02;;;;;;;10.20;9.20;;;29.20;55.10;;;;;;4806774;57;21122;-31
2022/07/30 21:04:03;;;;;;;10.15;9.20;;;29.20;55.10;;;;;;4989119;57;21580;-31
2022/07/30 21:09:04;;;;;;;10.52;9.52;;;29.20;55.20;;;;;;4900215;57;21090;-32
2022/07/30 21:14:08;;;;;;;9.90;9.00;;;29.20;55.10;;;;;;4886379;57;21153;-30
2022/07/30 21:19:09;;;;;;;9.88;8.95;;;29.20;55.30;;;;;;4564486;57;21495;-29
2022/07/30 21:24:14;;;;;;;10.57;9.63;;;29.20;55.30;;;;;;4626540;57;21509;-30
2022/07/30 21:29:16;;;;;;;9.73;8.82;;;29.20;55.40;;;;;;5009452;57;21507;-31
2022/07/30 21:34:17;;;;;;;9.77;8.77;;;29.20;55.40;;;;;;4613911;57;21073;-31
2022/07/30 21:39:17;;;;;;;9.57;8.68;;;29.20;55.50;;;;;;5009252;57;21114;-33
2022/07/30 21:44:18;;;;;;;9.68;8.77;;;29.20;55.50;;;;;;4713486;57;21101;-34
2022/07/30 21:49:19;;;;;;;9.07;8.30;;;29.20;55.50;;;;;;4671018;57;21093;-36
2022/07/30 21:54:20;;;;;;;9.50;8.68;;;29.20;55.60;;;;;;4609101;57;21081;-31
2022/07/30 21:59:21;;;;;;;8.95;8.15;;;29.20;55.50;;;;;;4748762;57;21373;-32
2022/07/30 22:04:22;;;;;;;10.00;9.10;;;29.20;55.50;;;;;;4704479;57;21050;-30
2022/07/30 22:09:22;;;;;;;9.45;8.55;;;29.20;55.60;;;;;;5009323;57;21003;-30
2022/07/30 22:14:23;;;;;;;9.02;8.23;;;29.20;55.70;;;;;;5009304;57;21162;-30
2022/07/30 22:19:24;;;;;;;8.90;8.15;;;29.20;55.60;;;;;;4562561;61;21748;-33
2022/07/30 22:24:25;;;;;;;9.25;8.45;;;29.20;55.60;;;;;;4765349;57;21089;-31
2022/07/30 22:29:26;;;;;;;9.65;8.65;;;29.20;55.60;;;;;;4562561;61;21077;-31
2022/07/30 22:34:26;;;;;;;9.50;8.70;;;29.20;55.70;;;;;;4562597;57;21030;-32
2022/07/30 22:39:27;;;;;;;9.05;8.20;;;29.20;55.60;;;;;;4595191;57;21029;-32
2022/07/30 22:44:28;;;;;;;9.18;8.38;;;29.20;56.20;;;;;;4835100;57;21093;-30
2022/07/30 22:49:29;;;;;;;8.80;8.00;;;29.20;55.70;;;;;;4600860;57;21070;-31
2022/07/30 22:54:29;;;;;;;8.95;8.15;;;29.20;55.70;;;;;;4679594;57;21131;-30
2022/07/30 22:59:30;;;;;;;8.75;8.00;;;29.20;55.70;;;;;;4742262;57;21512;-29
2022/07/30 23:04:31;;;;;;;8.75;7.97;;;29.20;55.80;;;;;;4710834;57;21058;-31
2022/07/30 23:09:32;;;;;;;9.18;8.27;;;29.20;55.70;;;;;;4566826;57;21030;-29
2022/07/30 23:14:33;;;;;;;8.63;7.93;;;29.20;55.80;;;;;;4913969;57;21053;-31
2022/07/30 23:19:33;;;;;;;8.95;8.10;;;29.20;55.80;;;;;;4585650;57;21559;-34
2022/07/30 23:24:34;;;;;;;8.30;7.57;;;29.20;55.80;;;;;;4663737;57;21050;-32
2022/07/30 23:29:35;;;;;;;8.15;7.45;;;29.20;55.80;;;;;;4608520;57;21101;-34
2022/07/30 23:34:36;;;;;;;8.40;7.70;;;29.20;55.80;;;;;;4582219;57;21114;-33
2022/07/30 23:39:37;;;;;;;8.35;7.62;;;29.20;55.80;;;;;;4687793;57;22120;-32
2022/07/30 23:44:38;;;;;;;8.30;7.60;;;29.20;55.90;;;;;;4760508;57;21022;-31
2022/07/30 23:49:39;;;;;;;8.55;7.75;;;29.20;55.90;;;;;;4562680;61;21641;-32
2022/07/30 23:54:39;;;;;;;7.80;7.12;;;29.20;55.90;;;;;;4907681;57;21034;-33
2022/07/30 23:59:40;;;;;;;8.27;7.57;;;29.20;55.90;;;;;;4846954;57;21037;-32
